sensor_id;sensor_type;location;lat;lon;timestamp;pressure;altitude;pressure_sealevel;temperature;humidity
20930;BME280;21895;47.072;15.132;2023-02-24T00:02:02;96306.00;;;6.41;76.65
20930;BME280;21895;47.072;15.132;2023-02-24T00:04:33;96295.00;;;6.34;77.07
20930;BME280;21895;47.072;15.132;2023-02-24T00:07:01;96290.00;;;6.18;77.02
20930;BME280;21895;47.072;15.132;2023-02-24T00:09:30;96286.00;;;6.18;77.33
20930;BME280;21895;47.072;15.132;2023-02-24T00:12:03;96286.00;;;6.02;77.43
20930;BME280;21895;47.072;15.132;2023-02-24T00:14:36;96287.00;;;6.01;77.59
20930;BME280;21895;47.072;15.132;2023-02-24T00:17:04;96283.00;;;5.93;77.24
20930;BME280;21895;47.072;15.132;2023-02-24T00:19:33;96283.00;;;5.88;77.07
20930;BME280;21895;47.072;15.132;2023-02-24T00:22:06;96282.00;;;5.89;76.91
20930;BME280;21895;47.072;15.132;2023-02-24T00:24:33;96286.00;;;5.89;76.74
20930;BME280;21895;47.072;15.132;2023-02-24T00:27:03;96278.00;;;5.79;76.75
20930;BME280;21895;47.072;15.132;2023-02-24T00:29:33;96274.00;;;5.81;77.02
20930;BME280;21895;47.072;15.132;2023-02-24T00:31:59;96269.00;;;5.78;76.92
20930;BME280;21895;47.072;15.132;2023-02-24T00:34:31;96261.00;;;5.69;76.90
20930;BME280;21895;47.072;15.132;2023-02-24T00:36:59;96272.00;;;5.63;76.82
20930;BME280;21895;47.072;15.132;2023-02-24T00:39:26;96267.00;;;5.53;76.63
20930;BME280;21895;47.072;15.132;2023-02-24T00:41:59;96265.00;;;5.42;77.13
20930;BME280;21895;47.072;15.132;2023-02-24T00:44:39;96270.00;;;5.45;78.14
20930;BME280;21895;47.072;15.132;2023-02-24T00:47:09;96267.00;;;5.47;77.74
20930;BME280;21895;47.072;15.132;2023-02-24T00:49:37;96257.00;;;5.40;76.81
20930;BME280;21895;47.072;15.132;2023-02-24T00:52:19;96248.00;;;5.63;77.77
20930;BME280;21895;47.072;15.132;2023-02-24T00:54:48;96248.00;;;5.62;77.49
20930;BME280;21895;47.072;15.132;2023-02-24T00:57:15;96252.00;;;5.57;76.67
20930;BME280;21895;47.072;15.132;2023-02-24T00:59:46;96243.00;;;5.50;76.46
20930;BME280;21895;47.072;15.132;2023-02-24T01:02:14;96245.00;;;5.39;76.53
20930;BME280;21895;47.072;15.132;2023-02-24T01:04:40;96241.00;;;5.31;76.74
20930;BME280;21895;47.072;15.132;2023-02-24T01:07:10;96242.00;;;5.26;76.90
20930;BME280;21895;47.072;15.132;2023-02-24T01:09:40;96239.00;;;5.33;77.68
20930;BME280;21895;47.072;15.132;2023-02-24T01:12:09;96230.00;;;5.40;77.38
20930;BME280;21895;47.072;15.132;2023-02-24T01:14:51;96234.00;;;5.42;76.99
20930;BME280;21895;47.072;15.132;2023-02-24T01:17:20;96228.00;;;5.37;76.27
20930;BME280;21895;47.072;15.132;2023-02-24T01:19:47;96221.00;;;5.31;77.64
20930;BME280;21895;47.072;15.132;2023-02-24T01:22:16;96223.00;;;5.36;77.76
20930;BME280;21895;47.072;15.132;2023-02-24T01:24:44;96229.00;;;5.36;76.75
20930;BME280;21895;47.072;15.132;2023-02-24T01:27:14;96226.00;;;5.36;76.80
20930;BME280;21895;47.072;15.132;2023-02-24T01:29:46;96213.00;;;5.39;77.12
20930;BME280;21895;47.072;15.132;2023-02-24T01:32:18;96212.00;;;5.40;78.09
20930;BME280;21895;47.072;15.132;2023-02-24T01:34:47;96211.00;;;5.47;76.63
20930;BME280;21895;47.072;15.132;2023-02-24T01:37:16;96199.00;;;5.44;75.61
20930;BME280;21895;47.072;15.132;2023-02-24T01:39:44;96205.00;;;5.26;76.24
20930;BME280;21895;47.072;15.132;2023-02-24T01:42:18;96205.00;;;5.18;77.11
20930;BME280;21895;47.072;15.132;2023-02-24T01:45:13;96199.00;;;5.24;77.71
20930;BME280;21895;47.072;15.132;2023-02-24T01:47:42;96200.00;;;5.15;78.25
20930;BME280;21895;47.072;15.132;2023-02-24T01:50:10;96200.00;;;5.15;77.24
20930;BME280;21895;47.072;15.132;2023-02-24T01:52:42;96191.00;;;5.07;77.39
20930;BME280;21895;47.072;15.132;2023-02-24T01:55:25;96191.00;;;5.06;77.76
20930;BME280;21895;47.072;15.132;2023-02-24T01:57:57;96194.00;;;5.04;76.60
20930;BME280;21895;47.072;15.132;2023-02-24T02:00:26;96194.00;;;4.98;76.91
20930;BME280;21895;47.072;15.132;2023-02-24T02:03:25;96194.00;;;4.98;76.44
20930;BME280;21895;47.072;15.132;2023-02-24T02:06:06;96189.00;;;4.88;76.35
20930;BME280;21895;47.072;15.132;2023-02-24T02:08:35;96192.00;;;4.68;76.60
20930;BME280;21895;47.072;15.132;2023-02-24T02:11:09;96184.00;;;4.61;76.67
20930;BME280;21895;47.072;15.132;2023-02-24T02:13:42;96188.00;;;4.57;77.32
20930;BME280;21895;47.072;15.132;2023-02-24T02:16:44;96189.00;;;4.59;77.17
20930;BME280;21895;47.072;15.132;2023-02-24T02:33:46;96181.00;;;4.70;77.52
20930;BME280;21895;47.072;15.132;2023-02-24T02:37:22;96188.00;;;4.69;77.43
20930;BME280;21895;47.072;15.132;2023-02-24T02:40:03;96185.00;;;4.75;76.47
20930;BME280;21895;47.072;15.132;2023-02-24T02:44:06;96180.00;;;4.71;75.89
20930;BME280;21895;47.072;15.132;2023-02-24T02:47:11;96177.00;;;4.72;76.02
20930;BME280;21895;47.072;15.132;2023-02-24T02:49:50;96182.00;;;4.67;77.53
20930;BME280;21895;47.072;15.132;2023-02-24T02:52:35;96181.00;;;4.73;77.42
20930;BME280;21895;47.072;15.132;2023-02-24T02:55:18;96172.00;;;4.70;76.90
20930;BME280;21895;47.072;15.132;2023-02-24T02:57:53;96185.00;;;4.62;77.13
20930;BME280;21895;47.072;15.132;2023-02-24T03:00:29;96189.00;;;4.56;77.05
20930;BME280;21895;47.072;15.132;2023-02-24T03:03:11;96183.00;;;4.47;76.66
20930;BME280;21895;47.072;15.132;2023-02-24T03:05:53;96184.00;;;4.52;76.40
20930;BME280;21895;47.072;15.132;2023-02-24T03:08:27;96183.00;;;4.38;76.54
20930;BME280;21895;47.072;15.132;2023-02-24T03:10:59;96177.00;;;4.64;78.76
20930;BME280;21895;47.072;15.132;2023-02-24T03:13:31;96182.00;;;4.80;77.39
20930;BME280;21895;47.072;15.132;2023-02-24T03:16:03;96178.00;;;4.79;76.41
20930;BME280;21895;47.072;15.132;2023-02-24T03:18:43;96171.00;;;4.63;76.72
20930;BME280;21895;47.072;15.132;2023-02-24T03:21:42;96174.00;;;4.65;77.80
20930;BME280;21895;47.072;15.132;2023-02-24T03:24:13;96171.00;;;4.63;79.49
20930;BME280;21895;47.072;15.132;2023-02-24T03:27:52;96166.00;;;4.69;79.12
20930;BME280;21895;47.072;15.132;2023-02-24T03:30:42;96164.00;;;4.81;79.06
20930;BME280;21895;47.072;15.132;2023-02-24T03:33:28;96164.00;;;5.13;78.76
20930;BME280;21895;47.072;15.132;2023-02-24T03:35:56;96161.00;;;5.10;79.16
20930;BME280;21895;47.072;15.132;2023-02-24T03:38:30;96163.00;;;5.11;79.04
20930;BME280;21895;47.072;15.132;2023-02-24T03:40:58;96155.00;;;5.23;77.89
20930;BME280;21895;47.072;15.132;2023-02-24T03:43:30;96159.00;;;4.94;77.69
20930;BME280;21895;47.072;15.132;2023-02-24T03:45:59;96154.00;;;4.87;77.64
20930;BME280;21895;47.072;15.132;2023-02-24T03:48:27;96162.00;;;4.76;77.62
20930;BME280;21895;47.072;15.132;2023-02-24T03:50:54;96156.00;;;4.77;77.89
20930;BME280;21895;47.072;15.132;2023-02-24T03:54:01;96156.00;;;4.71;77.87
20930;BME280;21895;47.072;15.132;2023-02-24T03:57:05;96157.00;;;4.91;78.06
20930;BME280;21895;47.072;15.132;2023-02-24T04:00:14;96153.00;;;4.85;78.43
20930;BME280;21895;47.072;15.132;2023-02-24T04:03:43;96155.00;;;4.61;77.20
20930;BME280;21895;47.072;15.132;2023-02-24T04:06:46;96149.00;;;4.49;77.13
20930;BME280;21895;47.072;15.132;2023-02-24T04:10:36;96143.00;;;4.32;76.22
20930;BME280;21895;47.072;15.132;2023-02-24T04:13:29;96147.00;;;4.18;76.93
20930;BME280;21895;47.072;15.132;2023-02-24T04:17:29;96150.00;;;4.09;76.19
20930;BME280;21895;47.072;15.132;2023-02-24T04:20:02;96152.00;;;4.03;76.55
20930;BME280;21895;47.072;15.132;2023-02-24T04:22:48;96151.00;;;3.91;76.37
20930;BME280;21895;47.072;15.132;2023-02-24T04:25:20;96144.00;;;4.13;77.00
20930;BME280;21895;47.072;15.132;2023-02-24T04:27:58;96142.00;;;4.33;79.48
20930;BME280;21895;47.072;15.132;2023-02-24T04:30:32;96142.00;;;4.39;77.82
20930;BME280;21895;47.072;15.132;2023-02-24T04:32:59;96138.00;;;4.18;75.93
20930;BME280;21895;47.072;15.132;2023-02-24T04:35:26;96130.00;;;4.18;76.26
20930;BME280;21895;47.072;15.132;2023-02-24T04:37:53;96136.00;;;4.12;77.47
20930;BME280;21895;47.072;15.132;2023-02-24T04:40:22;96126.00;;;4.22;77.20
20930;BME280;21895;47.072;15.132;2023-02-24T04:42:50;96127.00;;;4.09;76.45
20930;BME280;21895;47.072;15.132;2023-02-24T04:45:30;96122.00;;;4.04;75.81
20930;BME280;21895;47.072;15.132;2023-02-24T04:48:00;96126.00;;;3.86;76.07
20930;BME280;21895;47.072;15.132;2023-02-24T04:50:35;96123.00;;;3.77;76.70
20930;BME280;21895;47.072;15.132;2023-02-24T04:53:09;96123.00;;;3.80;76.99
20930;BME280;21895;47.072;15.132;2023-02-24T04:55:43;96108.00;;;3.91;76.76
20930;BME280;21895;47.072;15.132;2023-02-24T04:58:20;96105.00;;;3.94;78.00
20930;BME280;21895;47.072;15.132;2023-02-24T05:00:50;96112.00;;;3.95;78.22
20930;BME280;21895;47.072;15.132;2023-02-24T05:03:24;96104.00;;;4.11;77.67
20930;BME280;21895;47.072;15.132;2023-02-24T05:05:59;96101.00;;;4.00;77.27
20930;BME280;21895;47.072;15.132;2023-02-24T05:08:27;96095.00;;;4.09;77.85
20930;BME280;21895;47.072;15.132;2023-02-24T05:10:55;96098.00;;;4.16;76.53
20930;BME280;21895;47.072;15.132;2023-02-24T05:13:28;96093.00;;;4.13;76.68
20930;BME280;21895;47.072;15.132;2023-02-24T05:16:07;96091.00;;;4.45;80.27
20930;BME280;21895;47.072;15.132;2023-02-24T05:18:35;96091.00;;;4.73;79.65
20930;BME280;21895;47.072;15.132;2023-02-24T05:21:16;96086.00;;;4.76;77.41
20930;BME280;21895;47.072;15.132;2023-02-24T05:24:01;96090.00;;;4.46;76.32
20930;BME280;21895;47.072;15.132;2023-02-24T05:26:38;96083.00;;;4.25;77.36
20930;BME280;21895;47.072;15.132;2023-02-24T05:29:07;96077.00;;;4.29;77.61
20930;BME280;21895;47.072;15.132;2023-02-24T05:31:34;96080.00;;;4.19;78.02
20930;BME280;21895;47.072;15.132;2023-02-24T05:34:05;96075.00;;;4.20;79.00
20930;BME280;21895;47.072;15.132;2023-02-24T05:36:37;96073.00;;;4.28;78.24
20930;BME280;21895;47.072;15.132;2023-02-24T05:39:06;96074.00;;;4.24;77.04
20930;BME280;21895;47.072;15.132;2023-02-24T05:41:36;96073.00;;;4.05;76.51
20930;BME280;21895;47.072;15.132;2023-02-24T05:44:07;96071.00;;;4.02;77.16
20930;BME280;21895;47.072;15.132;2023-02-24T05:46:40;96073.00;;;4.10;78.91
20930;BME280;21895;47.072;15.132;2023-02-24T05:49:16;96067.00;;;4.15;78.66
20930;BME280;21895;47.072;15.132;2023-02-24T05:51:50;96069.00;;;4.19;77.77
20930;BME280;21895;47.072;15.132;2023-02-24T05:54:31;96066.00;;;4.04;75.98
20930;BME280;21895;47.072;15.132;2023-02-24T05:57:08;96073.00;;;3.83;76.67
20930;BME280;21895;47.072;15.132;2023-02-24T05:59:40;96066.00;;;3.77;76.31
20930;BME280;21895;47.072;15.132;2023-02-24T06:02:12;96067.00;;;3.78;75.98
20930;BME280;21895;47.072;15.132;2023-02-24T06:04:42;96067.00;;;3.70;75.38
20930;BME280;21895;47.072;15.132;2023-02-24T06:07:22;96065.00;;;3.43;75.50
20930;BME280;21895;47.072;15.132;2023-02-24T06:09:55;96066.00;;;3.41;76.41
20930;BME280;21895;47.072;15.132;2023-02-24T06:12:26;96072.00;;;3.44;78.21
20930;BME280;21895;47.072;15.132;2023-02-24T06:14:53;96075.00;;;3.50;77.62
20930;BME280;21895;47.072;15.132;2023-02-24T06:17:21;96067.00;;;3.60;76.76
20930;BME280;21895;47.072;15.132;2023-02-24T06:19:51;96073.00;;;3.50;76.50
20930;BME280;21895;47.072;15.132;2023-02-24T06:22:21;96073.00;;;3.47;76.65
20930;BME280;21895;47.072;15.132;2023-02-24T06:24:49;96077.00;;;3.65;76.65
20930;BME280;21895;47.072;15.132;2023-02-24T06:27:17;96067.00;;;3.70;77.02
20930;BME280;21895;47.072;15.132;2023-02-24T06:29:50;96071.00;;;3.72;77.62
20930;BME280;21895;47.072;15.132;2023-02-24T06:32:22;96073.00;;;3.83;77.84
20930;BME280;21895;47.072;15.132;2023-02-24T06:34:50;96072.00;;;4.01;77.67
20930;BME280;21895;47.072;15.132;2023-02-24T06:37:17;96066.00;;;4.26;77.42
20930;BME280;21895;47.072;15.132;2023-02-24T06:39:44;96069.00;;;4.41;76.77
20930;BME280;21895;47.072;15.132;2023-02-24T06:42:12;96074.00;;;4.47;76.65
20930;BME280;21895;47.072;15.132;2023-02-24T06:44:40;96067.00;;;4.54;77.19
20930;BME280;21895;47.072;15.132;2023-02-24T06:47:11;96065.00;;;4.70;77.65
20930;BME280;21895;47.072;15.132;2023-02-24T06:49:40;96058.00;;;4.94;77.42
20930;BME280;21895;47.072;15.132;2023-02-24T06:52:07;96060.00;;;5.01;77.14
20930;BME280;21895;47.072;15.132;2023-02-24T06:54:36;96058.00;;;5.12;77.23
20930;BME280;21895;47.072;15.132;2023-02-24T06:57:03;96053.00;;;5.15;77.33
20930;BME280;21895;47.072;15.132;2023-02-24T06:59:30;96049.00;;;5.26;76.57
20930;BME280;21895;47.072;15.132;2023-02-24T07:01:59;96056.00;;;5.09;75.88
20930;BME280;21895;47.072;15.132;2023-02-24T07:04:26;96045.00;;;5.05;75.81
20930;BME280;21895;47.072;15.132;2023-02-24T07:06:58;96047.00;;;5.01;75.87
20930;BME280;21895;47.072;15.132;2023-02-24T07:09:29;96055.00;;;5.00;76.45
20930;BME280;21895;47.072;15.132;2023-02-24T07:11:56;96039.00;;;5.03;76.54
20930;BME280;21895;47.072;15.132;2023-02-24T07:14:26;96042.00;;;5.20;76.00
20930;BME280;21895;47.072;15.132;2023-02-24T07:16:53;96048.00;;;5.22;75.76
20930;BME280;21895;47.072;15.132;2023-02-24T07:19:25;96042.00;;;5.27;75.49
20930;BME280;21895;47.072;15.132;2023-02-24T07:21:56;96037.00;;;5.31;75.42
20930;BME280;21895;47.072;15.132;2023-02-24T07:24:27;96042.00;;;5.50;75.08
20930;BME280;21895;47.072;15.132;2023-02-24T07:27:15;96042.00;;;5.70;74.58
20930;BME280;21895;47.072;15.132;2023-02-24T07:29:50;96038.00;;;5.82;74.86
20930;BME280;21895;47.072;15.132;2023-02-24T07:32:20;96035.00;;;5.92;75.49
20930;BME280;21895;47.072;15.132;2023-02-24T07:34:50;96036.00;;;6.26;74.28
20930;BME280;21895;47.072;15.132;2023-02-24T07:37:16;96038.00;;;6.31;74.55
20930;BME280;21895;47.072;15.132;2023-02-24T07:39:45;96038.00;;;6.49;74.11
20930;BME280;21895;47.072;15.132;2023-02-24T07:42:12;96024.00;;;6.64;74.29
20930;BME280;21895;47.072;15.132;2023-02-24T07:44:38;96025.00;;;6.74;74.07
20930;BME280;21895;47.072;15.132;2023-02-24T07:47:05;96024.00;;;6.88;73.88
20930;BME280;21895;47.072;15.132;2023-02-24T07:49:33;96010.00;;;6.95;74.04
20930;BME280;21895;47.072;15.132;2023-02-24T07:52:00;96013.00;;;7.09;74.08
20930;BME280;21895;47.072;15.132;2023-02-24T07:54:27;96014.00;;;7.29;73.73
20930;BME280;21895;47.072;15.132;2023-02-24T07:56:57;96003.00;;;7.46;72.58
20930;BME280;21895;47.072;15.132;2023-02-24T07:59:33;96003.00;;;7.52;72.27
20930;BME280;21895;47.072;15.132;2023-02-24T08:02:02;95996.00;;;7.70;71.50
20930;BME280;21895;47.072;15.132;2023-02-24T08:04:32;95986.00;;;7.96;70.85
20930;BME280;21895;47.072;15.132;2023-02-24T08:07:02;95986.00;;;8.09;70.42
20930;BME280;21895;47.072;15.132;2023-02-24T08:09:32;95985.00;;;8.16;70.26
20930;BME280;21895;47.072;15.132;2023-02-24T08:12:17;95979.00;;;8.31;70.35
20930;BME280;21895;47.072;15.132;2023-02-24T08:14:49;95976.00;;;8.58;69.34
20930;BME280;21895;47.072;15.132;2023-02-24T08:17:25;95969.00;;;8.80;68.53
20930;BME280;21895;47.072;15.132;2023-02-24T08:19:54;95964.00;;;8.80;68.47
20930;BME280;21895;47.072;15.132;2023-02-24T08:22:48;95965.00;;;9.01;67.83
20930;BME280;21895;47.072;15.132;2023-02-24T08:25:20;95961.00;;;9.16;67.35
20930;BME280;21895;47.072;15.132;2023-02-24T08:27:51;95959.00;;;9.48;66.39
20930;BME280;21895;47.072;15.132;2023-02-24T08:30:35;95951.00;;;9.46;66.52
20930;BME280;21895;47.072;15.132;2023-02-24T08:33:13;95944.00;;;9.65;66.40
20930;BME280;21895;47.072;15.132;2023-02-24T08:35:43;95950.00;;;9.77;66.00
20930;BME280;21895;47.072;15.132;2023-02-24T08:38:16;95951.00;;;9.91;65.62
20930;BME280;21895;47.072;15.132;2023-02-24T08:40:51;95949.00;;;9.99;65.29
20930;BME280;21895;47.072;15.132;2023-02-24T08:43:30;95947.00;;;10.26;64.72
20930;BME280;21895;47.072;15.132;2023-02-24T08:47:00;95941.00;;;10.50;63.90
20930;BME280;21895;47.072;15.132;2023-02-24T08:49:30;95934.00;;;10.67;63.42
20930;BME280;21895;47.072;15.132;2023-02-24T08:51:58;95938.00;;;10.66;63.35
20930;BME280;21895;47.072;15.132;2023-02-24T08:54:27;95929.00;;;10.79;62.69
20930;BME280;21895;47.072;15.132;2023-02-24T08:56:58;95927.00;;;10.89;62.49
20930;BME280;21895;47.072;15.132;2023-02-24T08:59:36;95927.00;;;11.01;62.67
20930;BME280;21895;47.072;15.132;2023-02-24T09:02:20;95919.00;;;11.28;61.50
20930;BME280;21895;47.072;15.132;2023-02-24T09:05:25;95919.00;;;11.45;61.07
20930;BME280;21895;47.072;15.132;2023-02-24T09:07:53;95915.00;;;11.68;60.55
20930;BME280;21895;47.072;15.132;2023-02-24T09:10:21;95909.00;;;11.97;60.38
20930;BME280;21895;47.072;15.132;2023-02-24T09:12:48;95913.00;;;12.16;59.55
20930;BME280;21895;47.072;15.132;2023-02-24T09:15:15;95906.00;;;12.32;58.45
20930;BME280;21895;47.072;15.132;2023-02-24T09:17:43;95901.00;;;12.40;57.93
20930;BME280;21895;47.072;15.132;2023-02-24T09:20:17;95899.00;;;12.45;57.33
20930;BME280;21895;47.072;15.132;2023-02-24T09:22:58;95899.00;;;12.45;57.03
20930;BME280;21895;47.072;15.132;2023-02-24T09:25:38;95894.00;;;12.27;57.85
20930;BME280;21895;47.072;15.132;2023-02-24T09:28:14;95885.00;;;12.27;57.61
20930;BME280;21895;47.072;15.132;2023-02-24T09:30:56;95885.00;;;12.32;56.86
20930;BME280;21895;47.072;15.132;2023-02-24T09:33:30;95882.00;;;12.49;56.55
20930;BME280;21895;47.072;15.132;2023-02-24T09:36:10;95871.00;;;12.57;55.87
20930;BME280;21895;47.072;15.132;2023-02-24T09:38:51;95879.00;;;12.73;55.58
20930;BME280;21895;47.072;15.132;2023-02-24T09:44:39;95874.00;;;12.81;54.57
20930;BME280;21895;47.072;15.132;2023-02-24T09:50:34;95868.00;;;13.18;52.46
20930;BME280;21895;47.072;15.132;2023-02-24T09:53:30;95866.00;;;13.35;51.63
20930;BME280;21895;47.072;15.132;2023-02-24T09:56:28;95865.00;;;13.55;50.04
20930;BME280;21895;47.072;15.132;2023-02-24T09:59:23;95859.00;;;13.79;49.48
20930;BME280;21895;47.072;15.132;2023-02-24T10:02:35;95855.00;;;14.13;48.86
20930;BME280;21895;47.072;15.132;2023-02-24T10:06:01;95850.00;;;14.41;48.25
20930;BME280;21895;47.072;15.132;2023-02-24T10:08:44;95847.00;;;14.63;47.82
20930;BME280;21895;47.072;15.132;2023-02-24T10:11:13;95846.00;;;14.76;47.12
20930;BME280;21895;47.072;15.132;2023-02-24T10:13:53;95840.00;;;14.65;47.57
20930;BME280;21895;47.072;15.132;2023-02-24T10:16:30;95848.00;;;14.84;45.73
20930;BME280;21895;47.072;15.132;2023-02-24T10:21:59;95842.00;;;14.96;44.20
20930;BME280;21895;47.072;15.132;2023-02-24T10:24:46;95833.00;;;14.47;43.30
20930;BME280;21895;47.072;15.132;2023-02-24T10:28:20;95822.00;;;14.46;43.46
20930;BME280;21895;47.072;15.132;2023-02-24T10:31:12;95828.00;;;14.34;43.52
20930;BME280;21895;47.072;15.132;2023-02-24T10:34:14;95825.00;;;13.95;44.08
20930;BME280;21895;47.072;15.132;2023-02-24T10:36:51;95825.00;;;14.03;43.65
20930;BME280;21895;47.072;15.132;2023-02-24T10:39:23;95811.00;;;13.77;44.10
20930;BME280;21895;47.072;15.132;2023-02-24T10:42:00;95815.00;;;13.44;44.74
20930;BME280;21895;47.072;15.132;2023-02-24T10:44:48;95814.00;;;13.70;44.75
20930;BME280;21895;47.072;15.132;2023-02-24T10:47:29;95811.00;;;13.85;45.52
20930;BME280;21895;47.072;15.132;2023-02-24T10:50:04;95805.00;;;13.72;44.97
20930;BME280;21895;47.072;15.132;2023-02-24T10:52:42;95797.00;;;14.07;44.41
20930;BME280;21895;47.072;15.132;2023-02-24T10:58:35;95783.00;;;14.05;45.11
20930;BME280;21895;47.072;15.132;2023-02-24T11:01:29;95770.00;;;14.30;43.27
20930;BME280;21895;47.072;15.132;2023-02-24T11:04:17;95758.00;;;14.07;43.60
20930;BME280;21895;47.072;15.132;2023-02-24T11:07:14;95755.00;;;14.28;43.59
20930;BME280;21895;47.072;15.132;2023-02-24T11:10:16;95746.00;;;14.19;43.02
20930;BME280;21895;47.072;15.132;2023-02-24T11:12:53;95735.00;;;14.04;43.48
20930;BME280;21895;47.072;15.132;2023-02-24T11:15:53;95728.00;;;13.91;43.96
20930;BME280;21895;47.072;15.132;2023-02-24T11:18:45;95729.00;;;14.22;43.32
20930;BME280;21895;47.072;15.132;2023-02-24T11:21:16;95720.00;;;14.34;42.79
20930;BME280;21895;47.072;15.132;2023-02-24T11:23:52;95712.00;;;14.54;43.44
20930;BME280;21895;47.072;15.132;2023-02-24T11:26:36;95706.00;;;14.84;42.40
20930;BME280;21895;47.072;15.132;2023-02-24T11:31:10;95704.00;;;14.88;42.66
20930;BME280;21895;47.072;15.132;2023-02-24T11:34:38;95694.00;;;14.85;42.00
20930;BME280;21895;47.072;15.132;2023-02-24T11:37:36;95688.00;;;15.09;42.35
20930;BME280;21895;47.072;15.132;2023-02-24T11:41:06;95685.00;;;15.10;41.63
20930;BME280;21895;47.072;15.132;2023-02-24T11:43:39;95676.00;;;15.22;41.67
20930;BME280;21895;47.072;15.132;2023-02-24T11:46:20;95664.00;;;15.31;41.05
20930;BME280;21895;47.072;15.132;2023-02-24T11:48:55;95661.00;;;15.70;40.39
20930;BME280;21895;47.072;15.132;2023-02-24T11:51:29;95656.00;;;15.57;40.44
20930;BME280;21895;47.072;15.132;2023-02-24T11:54:08;95645.00;;;15.84;40.03
20930;BME280;21895;47.072;15.132;2023-02-24T11:56:46;95636.00;;;15.73;39.96
20930;BME280;21895;47.072;15.132;2023-02-24T11:59:32;95632.00;;;15.60;40.32
20930;BME280;21895;47.072;15.132;2023-02-24T12:04:17;95635.00;;;15.45;40.33
20930;BME280;21895;47.072;15.132;2023-02-24T12:07:24;95631.00;;;15.68;40.04
20930;BME280;21895;47.072;15.132;2023-02-24T12:11:37;95627.00;;;15.55;40.29
20930;BME280;21895;47.072;15.132;2023-02-24T12:14:25;95610.00;;;15.41;40.48
20930;BME280;21895;47.072;15.132;2023-02-24T12:17:49;95609.00;;;15.25;40.36
20930;BME280;21895;47.072;15.132;2023-02-24T12:20:57;95606.00;;;14.92;40.89
20930;BME280;21895;47.072;15.132;2023-02-24T12:23:39;95596.00;;;14.91;41.41
20930;BME280;21895;47.072;15.132;2023-02-24T12:27:45;95601.00;;;14.75;42.02
20930;BME280;21895;47.072;15.132;2023-02-24T12:30:36;95599.00;;;14.97;41.12
20930;BME280;21895;47.072;15.132;2023-02-24T12:33:45;95595.00;;;14.68;41.71
20930;BME280;21895;47.072;15.132;2023-02-24T12:40:15;95577.00;;;15.13;40.80
20930;BME280;21895;47.072;15.132;2023-02-24T12:56:25;95558.00;;;15.78;39.44
20930;BME280;21895;47.072;15.132;2023-02-24T12:59:01;95549.00;;;15.51;39.63
20930;BME280;21895;47.072;15.132;2023-02-24T13:01:48;95541.00;;;15.52;39.78
20930;BME280;21895;47.072;15.132;2023-02-24T13:04:38;95540.00;;;15.69;39.13
20930;BME280;21895;47.072;15.132;2023-02-24T13:07:35;95542.00;;;15.89;39.21
20930;BME280;21895;47.072;15.132;2023-02-24T13:12:22;95533.00;;;15.86;39.39
20930;BME280;21895;47.072;15.132;2023-02-24T13:14:52;95533.00;;;15.80;39.22
20930;BME280;21895;47.072;15.132;2023-02-24T13:17:23;95524.00;;;15.62;38.51
20930;BME280;21895;47.072;15.132;2023-02-24T13:19:54;95521.00;;;15.29;39.20
20930;BME280;21895;47.072;15.132;2023-02-24T13:22:27;95523.00;;;15.34;39.38
20930;BME280;21895;47.072;15.132;2023-02-24T13:25:16;95527.00;;;15.41;39.33
20930;BME280;21895;47.072;15.132;2023-02-24T13:28:02;95528.00;;;15.47;39.17
20930;BME280;21895;47.072;15.132;2023-02-24T13:30:40;95524.00;;;15.62;39.27
20930;BME280;21895;47.072;15.132;2023-02-24T13:33:27;95522.00;;;15.67;39.42
20930;BME280;21895;47.072;15.132;2023-02-24T13:36:20;95518.00;;;15.47;39.29
20930;BME280;21895;47.072;15.132;2023-02-24T13:39:04;95511.00;;;15.46;39.73
20930;BME280;21895;47.072;15.132;2023-02-24T13:41:38;95517.00;;;15.60;39.72
20930;BME280;21895;47.072;15.132;2023-02-24T13:44:27;95512.00;;;15.57;39.84
20930;BME280;21895;47.072;15.132;2023-02-24T13:51:56;95523.00;;;15.61;39.78
20930;BME280;21895;47.072;15.132;2023-02-24T14:00:32;95509.00;;;15.14;40.70
20930;BME280;21895;47.072;15.132;2023-02-24T14:03:24;95511.00;;;15.04;40.61
20930;BME280;21895;47.072;15.132;2023-02-24T14:05:53;95510.00;;;15.10;40.70
20930;BME280;21895;47.072;15.132;2023-02-24T14:08:37;95509.00;;;15.16;40.82
20930;BME280;21895;47.072;15.132;2023-02-24T14:11:09;95501.00;;;15.22;40.28
20930;BME280;21895;47.072;15.132;2023-02-24T14:13:38;95493.00;;;14.91;41.26
20930;BME280;21895;47.072;15.132;2023-02-24T14:16:08;95494.00;;;14.76;41.50
20930;BME280;21895;47.072;15.132;2023-02-24T14:18:35;95492.00;;;14.44;42.24
20930;BME280;21895;47.072;15.132;2023-02-24T14:21:03;95495.00;;;14.56;41.99
20930;BME280;21895;47.072;15.132;2023-02-24T14:23:33;95484.00;;;14.80;41.94
20930;BME280;21895;47.072;15.132;2023-02-24T14:26:07;95484.00;;;14.54;41.87
20930;BME280;21895;47.072;15.132;2023-02-24T14:28:39;95483.00;;;14.45;42.40
20930;BME280;21895;47.072;15.132;2023-02-24T14:31:11;95480.00;;;14.62;41.97
20930;BME280;21895;47.072;15.132;2023-02-24T14:33:43;95465.00;;;14.50;41.79
20930;BME280;21895;47.072;15.132;2023-02-24T14:36:40;95471.00;;;14.43;42.28
20930;BME280;21895;47.072;15.132;2023-02-24T14:39:15;95464.00;;;14.51;42.48
20930;BME280;21895;47.072;15.132;2023-02-24T14:41:43;95467.00;;;14.67;42.12
20930;BME280;21895;47.072;15.132;2023-02-24T14:44:28;95465.00;;;14.55;42.20
20930;BME280;21895;47.072;15.132;2023-02-24T14:47:02;95462.00;;;14.38;42.42
20930;BME280;21895;47.072;15.132;2023-02-24T14:49:34;95464.00;;;14.59;42.21
20930;BME280;21895;47.072;15.132;2023-02-24T14:53:50;95464.00;;;14.02;43.50
20930;BME280;21895;47.072;15.132;2023-02-24T14:56:20;95470.00;;;14.00;43.26
20930;BME280;21895;47.072;15.132;2023-02-24T14:59:06;95450.00;;;14.05;43.39
20930;BME280;21895;47.072;15.132;2023-02-24T15:01:39;95448.00;;;14.18;43.30